CheckWX is a tool to help pilots better visualize weather data.  It is not intended as a substitute for an official pre-flight weather briefing.

08:35:51 UTC

CYXZ METAR
Wawa Airport
Wawa, Canada
Current

9 hours ago

CYXZ 230000Z 05011G17KT 4SM -RA BR OVC010 02/02 A3009 RMK NS8 LAST OBS/NEXT 231100UTC SLP206
Observed
Apr-23 @ 00:00 UTC
Wind
  • 050° at 11 KTS
  • Gusting to 17 KTS
Visibility
4 SM
Flight Rules
MVFR
Conditions
Light Rain, Mist
Cloud Levels
  • Overcast at 1,000' AGL
Temperature
C / 36°F
Dewpoint
C / 36°F
Humidity
100%
Altimeter
30.09" Hg
Pressure
1018.92 hPa
Previous

10 hours ago

CYXZ 222300Z 03010KT 340V070 8SM -RA OVC010 02/02 A3012 RMK ST8 SLP215
Observed
Apr-22 @ 23:00 UTC
Wind
  • 030° at 10 KTS
Visibility
8 SM
Flight Rules
MVFR
Conditions
Light Rain
Cloud Levels
  • Overcast at 1,000' AGL
Temperature
C / 36°F
Dewpoint
C / 36°F
Humidity
100%
Altimeter
30.12" Hg
Pressure
1020.02 hPa
Previous

11 hours ago

CYXZ 222200Z CCA 04010KT 10SM -RA BKN012 BKN025 OVC057 02/02 A3012 RMK ST5SC2SC1 /R11/ SLP216
Observed
Apr-22 @ 22:00 UTC
Wind
  • 040° at 10 KTS
Visibility
10 SM
Flight Rules
MVFR
Conditions
Light Rain
Cloud Levels
  • Broken at 1,200' AGL
  • Broken at 2,500' AGL
  • Overcast at 5,700' AGL
Temperature
C / 36°F
Dewpoint
C / 36°F
Humidity
100%
Altimeter
30.12" Hg
Pressure
1020.02 hPa